createdAt,value
2022-12-08T00:02:16.858Z,20.25
2022-12-08T00:04:59.365Z,21.55
2022-12-08T00:07:44.802Z,20.75
2022-12-08T00:10:46.506Z,18.48
2022-12-08T00:13:02.903Z,20.13
2022-12-08T00:15:31.298Z,19.40
2022-12-08T00:17:59.478Z,18.67
2022-12-08T00:20:27.861Z,18.63
2022-12-08T00:22:55.939Z,17.58
2022-12-08T00:25:24.279Z,17.20
2022-12-08T00:27:52.323Z,18.27
2022-12-08T00:30:22.194Z,18.50
2022-12-08T00:32:50.315Z,16.52
2022-12-08T00:35:18.722Z,15.65
2022-12-08T00:37:46.893Z,16.23
2022-12-08T00:40:15.619Z,16.83
2022-12-08T00:42:43.887Z,18.58
2022-12-08T00:45:13.122Z,19.25
2022-12-08T00:47:42.751Z,17.35
2022-12-08T00:50:11.349Z,17.13
2022-12-08T00:52:39.827Z,18.73
2022-12-08T00:55:08.879Z,16.58
2022-12-08T00:57:37.098Z,17.17
2022-12-08T01:00:06.896Z,19.00
2022-12-08T01:02:36.029Z,16.88
2022-12-08T01:05:06.564Z,20.15
2022-12-08T01:07:34.879Z,17.52
2022-12-08T01:10:03.516Z,17.88
2022-12-08T01:12:31.812Z,17.17
2022-12-08T01:15:02.551Z,14.88
2022-12-08T01:17:31.176Z,15.05
2022-12-08T01:19:59.714Z,18.48
2022-12-08T01:22:29.297Z,19.63
2022-12-08T01:24:57.811Z,16.85
2022-12-08T01:27:25.963Z,19.40
2022-12-08T01:29:54.417Z,17.17
2022-12-08T01:32:22.773Z,17.48
2022-12-08T01:34:51.253Z,19.15
2022-12-08T01:37:19.437Z,18.17
2022-12-08T01:39:49.366Z,17.20
2022-12-08T01:42:21.193Z,16.58
2022-12-08T01:45:01.122Z,17.25
2022-12-08T01:47:33.713Z,15.15
2022-12-08T01:50:02.522Z,16.33
2022-12-08T01:52:35.411Z,15.20
2022-12-08T01:55:08.375Z,15.68
2022-12-08T01:57:38.651Z,13.93
2022-12-08T02:00:10.681Z,13.87
2022-12-08T02:02:43.482Z,15.00
2022-12-08T02:05:12.282Z,14.23
2022-12-08T02:07:40.448Z,13.30
2022-12-08T02:10:12.463Z,14.48
2022-12-08T02:12:40.558Z,13.82
2022-12-08T02:15:10.191Z,13.20
2022-12-08T02:17:49.466Z,14.55
2022-12-08T02:20:26.373Z,12.70
2022-12-08T02:22:59.692Z,13.30
2022-12-08T02:25:35.312Z,14.70
2022-12-08T02:28:12.279Z,14.88
2022-12-08T02:30:48.731Z,13.98
2022-12-08T02:33:44.153Z,14.73
2022-12-08T02:36:16.616Z,14.80
2022-12-08T02:38:49.766Z,16.63
2022-12-08T02:41:22.545Z,15.65
2022-12-08T02:43:56.411Z,17.10
2022-12-08T02:46:28.008Z,17.17
2022-12-08T02:51:25.946Z,17.52
2022-12-08T02:53:54.311Z,17.75
2022-12-08T02:56:36.601Z,18.45
2022-12-08T02:59:13.628Z,17.20
2022-12-08T03:01:54.959Z,16.15
2022-12-08T03:04:32.901Z,17.58
2022-12-08T03:07:06.292Z,16.55
2022-12-08T03:09:37.452Z,20.58
2022-12-08T03:12:10.765Z,17.88
2022-12-08T03:14:40.149Z,16.77
2022-12-08T03:17:09.818Z,16.23
2022-12-08T03:19:41.126Z,18.20
2022-12-08T03:22:10.599Z,19.02
2022-12-08T03:24:40.126Z,14.98
2022-12-08T03:27:10.085Z,17.20
2022-12-08T03:29:38.525Z,16.77
2022-12-08T03:32:10.756Z,15.70
2022-12-08T03:34:41.785Z,17.17
2022-12-08T03:39:38.217Z,17.85
2022-12-08T03:42:06.837Z,17.45
2022-12-08T03:44:35.021Z,18.17
2022-12-08T03:47:03.406Z,20.65
2022-12-08T03:49:31.657Z,18.48
2022-12-08T03:52:01.400Z,19.92
2022-12-08T03:54:29.601Z,16.42
2022-12-08T03:56:58.041Z,15.95
2022-12-08T03:59:26.412Z,17.27
2022-12-08T04:01:54.929Z,15.05
2022-12-08T04:04:23.236Z,16.95
2022-12-08T04:06:51.719Z,15.82
2022-12-08T04:09:21.222Z,16.00
2022-12-08T04:11:49.912Z,15.85
2022-12-08T04:14:18.116Z,14.90
2022-12-08T04:16:46.563Z,15.27
2022-12-08T04:19:15.375Z,16.25
2022-12-08T04:21:44.002Z,15.07
2022-12-08T04:24:12.247Z,17.55
2022-12-08T04:26:42.074Z,18.33
2022-12-08T04:29:10.185Z,17.65
2022-12-08T04:31:38.701Z,17.00
2022-12-08T04:34:06.899Z,17.00
2022-12-08T04:36:35.275Z,20.90
2022-12-08T04:39:03.361Z,21.70
2022-12-08T04:41:31.860Z,18.50
2022-12-08T04:44:01.371Z,23.15
2022-12-08T04:46:29.994Z,20.80
2022-12-08T04:48:58.212Z,21.90
2022-12-08T04:51:27.386Z,22.83
2022-12-08T04:53:55.519Z,22.95
2022-12-08T04:56:24.128Z,22.52
2022-12-08T04:58:52.192Z,20.90
2022-12-08T05:01:22.157Z,19.85
2022-12-08T05:03:50.324Z,22.02
2022-12-08T05:06:18.865Z,21.20
2022-12-08T05:08:46.964Z,22.10
2022-12-08T05:11:15.640Z,20.77
2022-12-08T05:13:43.726Z,22.88
2022-12-08T05:16:14.180Z,24.90
2022-12-08T05:18:44.469Z,19.92
2022-12-08T05:21:12.940Z,20.17
2022-12-08T05:23:41.108Z,18.95
2022-12-08T05:26:09.789Z,20.75
2022-12-08T05:28:42.675Z,21.85
2022-12-08T05:31:12.034Z,23.70
2022-12-08T05:33:40.645Z,25.17
2022-12-08T05:36:11.325Z,21.65
2022-12-08T05:38:39.516Z,20.80
2022-12-08T05:41:08.215Z,21.98
2022-12-08T05:43:36.719Z,19.98
2022-12-08T05:46:05.368Z,22.83
2022-12-08T05:48:33.875Z,20.70
2022-12-08T05:51:02.605Z,22.77
2022-12-08T05:53:32.157Z,23.60
2022-12-08T05:56:00.716Z,24.67
2022-12-08T05:58:29.037Z,20.55
2022-12-08T06:00:57.465Z,24.27
2022-12-08T06:03:25.832Z,23.55
2022-12-08T06:05:54.218Z,27.70
2022-12-08T06:08:22.571Z,25.80
2022-12-08T06:10:52.417Z,24.38
2022-12-08T06:13:20.668Z,21.88
2022-12-08T06:15:49.129Z,24.13
2022-12-08T06:18:17.300Z,24.02
2022-12-08T06:20:46.037Z,23.75
2022-12-08T06:23:14.102Z,25.83
2022-12-08T06:25:42.749Z,25.20
2022-12-08T06:28:12.287Z,23.05
2022-12-08T06:30:40.808Z,24.38
2022-12-08T06:33:08.968Z,21.83
2022-12-08T06:35:38.440Z,21.95
2022-12-08T06:38:06.554Z,21.58
2022-12-08T06:40:35.011Z,18.95
2022-12-08T06:43:03.243Z,19.10
2022-12-08T06:45:33.134Z,20.25
2022-12-08T06:48:02.774Z,18.55
2022-12-08T06:50:32.648Z,17.67
2022-12-08T06:53:05.158Z,19.77
2022-12-08T06:55:58.000Z,20.00
2022-12-08T06:58:22.888Z,17.05
2022-12-08T07:00:52.746Z,18.33
2022-12-08T07:03:21.301Z,20.52
2022-12-08T07:05:49.683Z,20.98
2022-12-08T07:08:17.879Z,18.75
2022-12-08T07:10:46.502Z,18.27
2022-12-08T07:13:14.661Z,22.85
2022-12-08T07:15:43.064Z,19.63
2022-12-08T07:18:12.639Z,20.95
2022-12-08T07:20:41.227Z,18.75
2022-12-08T07:23:09.449Z,21.23
2022-12-08T07:25:37.930Z,19.48
2022-12-08T07:28:10.783Z,17.88
2022-12-08T07:30:39.719Z,19.17
2022-12-08T07:33:08.120Z,19.23
2022-12-08T07:35:38.011Z,19.90
2022-12-08T07:38:06.088Z,17.08
2022-12-08T07:40:34.718Z,19.83
2022-12-08T07:43:02.896Z,20.33
2022-12-08T07:45:32.033Z,23.88
2022-12-08T07:48:00.391Z,25.95
2022-12-08T07:50:30.568Z,18.73
2022-12-08T07:53:28.101Z,21.10
2022-12-08T07:56:06.913Z,20.85
2022-12-08T07:58:35.352Z,20.13
2022-12-08T08:01:03.911Z,20.63
2022-12-08T08:03:32.108Z,19.63
2022-12-08T08:06:04.041Z,21.40
2022-12-08T08:08:33.633Z,22.35
2022-12-08T08:11:08.961Z,23.17
2022-12-08T08:13:41.709Z,21.35
2022-12-08T08:16:13.454Z,20.42
2022-12-08T08:18:42.033Z,22.77
2022-12-08T08:24:00.425Z,21.70
2022-12-08T08:26:28.876Z,18.67
2022-12-08T08:28:56.969Z,16.83
2022-12-08T08:31:25.994Z,18.70
2022-12-08T08:33:54.436Z,19.70
2022-12-08T08:36:22.809Z,20.15
2022-12-08T08:38:50.931Z,17.45
2022-12-08T08:41:20.979Z,17.42
2022-12-08T08:43:49.364Z,17.90
2022-12-08T08:46:17.921Z,22.30
2022-12-08T08:48:46.240Z,19.80
2022-12-08T08:51:15.722Z,23.50
2022-12-08T08:53:44.014Z,23.15
2022-12-08T08:56:13.709Z,21.80
2022-12-08T08:58:43.423Z,23.05
2022-12-08T09:01:16.474Z,19.65
2022-12-08T09:03:45.580Z,22.30
2022-12-08T09:06:14.155Z,18.38
2022-12-08T09:08:42.573Z,17.42
2022-12-08T09:11:11.550Z,17.63
2022-12-08T09:13:39.762Z,17.23
2022-12-08T09:16:10.734Z,17.92
2022-12-08T09:18:39.851Z,18.92
2022-12-08T09:21:09.387Z,16.35
2022-12-08T09:23:37.528Z,15.65
2022-12-08T09:26:06.272Z,18.17
2022-12-08T09:28:34.580Z,19.67
2022-12-08T09:31:03.368Z,17.88
2022-12-08T09:33:33.165Z,20.15
2022-12-08T09:36:03.619Z,20.00
2022-12-08T09:38:31.968Z,18.33
2022-12-08T09:41:01.125Z,16.55
2022-12-08T09:43:51.783Z,15.48
2022-12-08T09:46:20.716Z,15.52
2022-12-08T09:48:55.908Z,15.98
2022-12-08T09:51:25.792Z,15.98
2022-12-08T09:53:56.622Z,16.67
2022-12-08T09:56:27.745Z,17.73
2022-12-08T09:58:58.323Z,18.40
2022-12-08T10:01:29.821Z,16.25
2022-12-08T10:03:59.642Z,16.30
2022-12-08T10:06:32.223Z,15.15
2022-12-08T10:09:11.167Z,14.07
2022-12-08T10:11:45.608Z,12.68
2022-12-08T10:14:20.782Z,12.10
2022-12-08T10:16:51.362Z,15.60
2022-12-08T10:19:23.432Z,12.93
2022-12-08T10:21:52.119Z,14.45
2022-12-08T10:24:24.163Z,13.90
2022-12-08T10:26:52.641Z,12.98
2022-12-08T10:29:20.856Z,12.80
2022-12-08T10:31:49.968Z,12.10
2022-12-08T10:34:23.256Z,12.02
2022-12-08T10:36:53.380Z,16.02
2022-12-08T10:39:32.443Z,19.38
2022-12-08T10:42:18.759Z,14.60
2022-12-08T10:44:56.559Z,13.57
2022-12-08T10:47:27.263Z,13.43
2022-12-08T10:50:21.006Z,14.10
2022-12-08T10:52:56.152Z,12.98
2022-12-08T10:55:24.660Z,16.85
2022-12-08T10:57:53.107Z,18.00
2022-12-08T11:00:23.842Z,15.73
2022-12-08T11:02:58.388Z,14.65
2022-12-08T11:05:31.007Z,14.13
2022-12-08T11:08:00.220Z,26.75
2022-12-08T11:10:36.433Z,38.58
2022-12-08T11:13:07.113Z,29.33
2022-12-08T11:15:39.543Z,74.90
2022-12-08T11:18:10.930Z,50.33
2022-12-08T11:20:42.087Z,12.23
2022-12-08T11:25:50.268Z,16.60
2022-12-08T11:28:23.683Z,18.48
2022-12-08T11:30:57.683Z,37.10
2022-12-08T11:33:27.243Z,18.50
2022-12-08T11:36:01.429Z,17.70
2022-12-08T11:38:30.714Z,13.80
2022-12-08T11:41:02.830Z,14.80
2022-12-08T11:43:39.267Z,11.13
2022-12-08T11:46:13.857Z,14.18
2022-12-08T11:48:46.496Z,17.67
2022-12-08T11:51:18.651Z,13.50
2022-12-08T11:53:53.164Z,11.85
2022-12-08T11:56:23.821Z,18.52
2022-12-08T11:58:55.143Z,12.07
2022-12-08T12:01:25.697Z,17.90
2022-12-08T12:04:01.172Z,15.32
2022-12-08T12:06:54.743Z,16.67
2022-12-08T12:09:32.871Z,11.27
2022-12-08T12:12:16.051Z,15.18
2022-12-08T12:15:18.764Z,14.05
2022-12-08T12:17:49.288Z,13.77
2022-12-08T12:20:21.058Z,18.95
2022-12-08T12:25:23.736Z,23.25
2022-12-08T12:27:57.214Z,32.80
2022-12-08T12:30:27.556Z,14.93
2022-12-08T12:32:58.461Z,18.27
2022-12-08T12:35:33.661Z,26.77
2022-12-08T12:38:27.433Z,22.92
2022-12-08T12:41:00.256Z,26.70
2022-12-08T12:43:33.274Z,18.73
2022-12-08T12:46:42.268Z,20.70
2022-12-08T12:49:48.779Z,19.70
2022-12-08T12:52:42.872Z,22.33
2022-12-08T12:55:29.221Z,21.65
2022-12-08T12:57:58.525Z,20.70
2022-12-08T13:00:28.191Z,17.30
2022-12-08T13:02:57.961Z,15.32
2022-12-08T13:05:27.920Z,17.00
2022-12-08T13:07:58.343Z,18.10
2022-12-08T13:10:30.690Z,21.13
2022-12-08T13:13:08.649Z,19.70
2022-12-08T13:15:38.555Z,22.98
2022-12-08T13:18:07.901Z,26.13
2022-12-08T13:20:43.319Z,30.70
2022-12-08T13:23:29.489Z,24.77
2022-12-08T13:26:21.442Z,32.03
2022-12-08T13:29:15.183Z,24.92
2022-12-08T13:31:50.076Z,23.38
2022-12-08T13:34:22.614Z,22.05
2022-12-08T13:37:01.452Z,19.52
2022-12-08T13:39:33.794Z,19.58
2022-12-08T13:42:06.994Z,22.77
2022-12-08T13:45:18.492Z,18.88
2022-12-08T13:47:34.698Z,20.30
2022-12-08T13:58:38.708Z,27.48
2022-12-08T14:04:11.649Z,20.63
2022-12-08T14:06:38.506Z,18.80
2022-12-08T14:09:11.172Z,22.75
2022-12-08T14:11:41.551Z,26.45
2022-12-08T14:14:27.202Z,27.80
2022-12-08T14:17:05.247Z,20.38
2022-12-08T14:19:35.364Z,23.10
2022-12-08T14:22:11.500Z,23.53
2022-12-08T14:24:39.902Z,22.88
2022-12-08T14:27:10.534Z,20.92
2022-12-08T14:29:45.069Z,24.47
2022-12-08T14:32:29.179Z,23.25
2022-12-08T14:35:00.682Z,25.23
2022-12-08T14:37:30.360Z,21.65
2022-12-08T14:39:59.768Z,47.20
2022-12-08T14:42:30.045Z,79.88
2022-12-08T14:45:02.862Z,36.90
2022-12-08T14:47:33.492Z,63.28
2022-12-08T14:50:03.184Z,90.25
2022-12-08T14:52:32.181Z,158.77
2022-12-08T14:55:00.789Z,120.50
2022-12-08T14:57:34.911Z,46.88
2022-12-08T15:00:12.558Z,40.10
2022-12-08T15:02:46.389Z,38.83
2022-12-08T15:05:17.364Z,37.78
2022-12-08T15:10:26.555Z,41.15
2022-12-08T15:13:07.534Z,35.00
2022-12-08T15:15:51.283Z,42.53
2022-12-08T15:18:21.321Z,36.72
2022-12-08T15:20:51.659Z,64.55
2022-12-08T15:23:27.383Z,38.75
2022-12-08T15:25:56.835Z,30.23
2022-12-08T15:28:30.103Z,30.73
2022-12-08T15:31:00.242Z,31.63
2022-12-08T15:33:28.727Z,28.67
2022-12-08T15:35:56.995Z,27.60
2022-12-08T15:38:28.968Z,43.65
2022-12-08T15:40:58.753Z,27.10
2022-12-08T15:43:27.417Z,29.48
2022-12-08T15:46:00.354Z,26.50
2022-12-08T15:48:31.271Z,20.75
2022-12-08T15:50:59.972Z,24.67
2022-12-08T15:53:28.390Z,25.63
2022-12-08T15:58:53.728Z,30.80
2022-12-08T16:01:23.729Z,28.15
2022-12-08T16:07:20.220Z,22.27
2022-12-08T16:09:34.139Z,23.40
2022-12-08T16:12:20.346Z,20.15
2022-12-08T16:17:38.260Z,23.80
2022-12-08T16:20:12.922Z,25.48
2022-12-08T16:23:13.171Z,23.50
2022-12-08T16:25:52.614Z,23.77
2022-12-08T16:28:52.002Z,22.25
2022-12-08T16:31:13.310Z,24.48
2022-12-08T16:33:42.326Z,25.52
2022-12-08T16:36:12.425Z,32.03
2022-12-08T16:38:40.591Z,33.10
2022-12-08T16:41:32.038Z,34.88
2022-12-08T16:44:02.614Z,30.63
2022-12-08T16:46:31.241Z,36.72
2022-12-08T16:48:59.719Z,34.33
2022-12-08T16:51:29.580Z,44.55
2022-12-08T16:53:58.481Z,31.35
2022-12-08T16:56:32.519Z,35.92
2022-12-08T16:59:02.195Z,29.02
2022-12-08T17:01:31.266Z,26.63
2022-12-08T17:04:30.874Z,27.42
2022-12-08T17:06:52.877Z,27.75
2022-12-08T17:09:21.189Z,26.85
2022-12-08T17:11:49.867Z,32.35
2022-12-08T17:14:18.276Z,39.42
2022-12-08T17:16:47.098Z,31.80
2022-12-08T17:19:15.882Z,30.92
2022-12-08T17:21:45.250Z,27.85
2022-12-08T17:24:18.669Z,31.90
2022-12-08T17:26:51.762Z,36.88
2022-12-08T17:29:19.987Z,34.78
2022-12-08T17:31:48.513Z,33.70
2022-12-08T17:34:17.053Z,40.53
2022-12-08T17:36:45.569Z,34.55
2022-12-08T17:39:18.797Z,43.55
2022-12-08T17:41:48.007Z,48.50
2022-12-08T17:44:17.676Z,58.05
2022-12-08T17:46:52.149Z,51.60
2022-12-08T17:49:24.133Z,68.13
2022-12-08T17:51:54.740Z,52.03
2022-12-08T17:54:24.909Z,55.67
2022-12-08T17:56:53.439Z,56.83
2022-12-08T17:59:21.929Z,45.30
2022-12-08T18:01:50.540Z,58.83
2022-12-08T18:04:18.792Z,52.15
2022-12-08T18:06:47.377Z,45.00
2022-12-08T18:09:16.089Z,50.65
2022-12-08T18:11:47.185Z,45.92
2022-12-08T18:14:16.141Z,47.03
2022-12-08T18:16:46.190Z,47.85
2022-12-08T18:19:15.292Z,48.17
2022-12-08T18:21:44.221Z,39.78
2022-12-08T18:24:18.398Z,37.95
2022-12-08T18:26:48.261Z,42.67
2022-12-08T18:29:16.635Z,46.58
2022-12-08T18:31:45.134Z,40.90
2022-12-08T18:34:13.392Z,37.42
2022-12-08T18:36:42.021Z,38.20
2022-12-08T18:39:22.015Z,37.60
2022-12-08T18:41:51.995Z,34.65
2022-12-08T18:44:20.489Z,37.60
2022-12-08T18:46:49.169Z,33.13
2022-12-08T18:49:18.993Z,31.95
2022-12-08T18:51:47.759Z,38.03
2022-12-08T18:54:16.087Z,46.38
2022-12-08T18:56:44.623Z,41.10
2022-12-08T18:59:14.309Z,51.08
2022-12-08T19:01:43.049Z,44.10
2022-12-08T19:07:00.118Z,47.90
2022-12-08T19:09:29.111Z,42.80
2022-12-08T19:11:57.735Z,40.75
2022-12-08T19:14:28.477Z,45.95
2022-12-08T19:16:57.838Z,50.55
2022-12-08T19:19:27.827Z,59.95
2022-12-08T19:21:56.419Z,72.15
2022-12-08T19:24:24.869Z,61.25
2022-12-08T19:26:53.727Z,58.92
2022-12-08T19:29:22.008Z,43.58
2022-12-08T19:31:52.119Z,39.58
2022-12-08T19:34:20.419Z,41.20
2022-12-08T19:36:49.087Z,39.33
2022-12-08T19:39:36.541Z,39.88
2022-12-08T19:42:23.222Z,41.38
2022-12-08T19:44:54.769Z,39.95
2022-12-08T19:47:26.271Z,48.40
2022-12-08T19:50:16.000Z,47.25
2022-12-08T19:52:45.144Z,57.63
2022-12-08T19:55:13.893Z,67.20
2022-12-08T19:57:42.556Z,61.72
2022-12-08T20:00:13.680Z,79.95
2022-12-08T20:02:43.693Z,63.78
2022-12-08T20:05:12.521Z,39.65
2022-12-08T20:07:41.374Z,39.28
2022-12-08T20:10:13.970Z,33.58
2022-12-08T20:12:42.410Z,40.80
2022-12-08T20:15:11.784Z,36.67
2022-12-08T20:17:40.394Z,37.25
2022-12-08T20:20:13.800Z,39.20
2022-12-08T20:22:42.996Z,58.90
2022-12-08T20:25:13.225Z,54.58
2022-12-08T20:27:42.798Z,54.33
2022-12-08T20:30:16.741Z,47.13
2022-12-08T20:32:46.237Z,48.33
2022-12-08T20:35:17.922Z,50.13
2022-12-08T20:37:46.365Z,54.78
2022-12-08T20:40:14.582Z,60.90
2022-12-08T20:42:43.071Z,53.35
2022-12-08T20:45:11.525Z,56.05
2022-12-08T20:47:40.329Z,60.60
2022-12-08T20:50:10.056Z,61.42
2022-12-08T20:52:40.661Z,56.55
2022-12-08T20:55:10.014Z,50.78
2022-12-08T20:57:38.614Z,48.83
2022-12-08T21:00:08.498Z,45.75
2022-12-08T21:02:41.825Z,45.63
2022-12-08T21:05:13.737Z,44.30
2022-12-08T21:07:43.953Z,53.40
2022-12-08T21:10:12.426Z,44.97
2022-12-08T21:12:41.167Z,50.75
2022-12-08T21:15:12.336Z,49.42
2022-12-08T21:17:41.426Z,64.47
2022-12-08T21:20:10.711Z,43.15
2022-12-08T21:22:40.317Z,43.53
2022-12-08T21:25:10.909Z,44.90
2022-12-08T21:27:40.028Z,46.15
2022-12-08T21:30:10.817Z,42.40
2022-12-08T21:32:40.223Z,51.05
2022-12-08T21:35:10.052Z,51.45
2022-12-08T21:37:39.002Z,50.03
2022-12-08T21:40:08.714Z,49.03
2022-12-08T21:42:47.066Z,41.67
2022-12-08T21:45:17.253Z,35.90
2022-12-08T21:47:46.816Z,40.37
2022-12-08T21:50:15.880Z,39.72
2022-12-08T21:52:47.599Z,37.28
2022-12-08T21:55:17.159Z,37.95
2022-12-08T21:57:47.384Z,34.22
2022-12-08T22:00:18.266Z,36.55
2022-12-08T22:02:47.010Z,39.10
2022-12-08T22:05:15.489Z,38.22
2022-12-08T22:07:44.266Z,35.55
2022-12-08T22:10:12.863Z,36.72
2022-12-08T22:12:42.620Z,38.47
2022-12-08T22:15:13.065Z,38.83
2022-12-08T22:17:43.999Z,36.45
2022-12-08T22:20:14.129Z,45.00
2022-12-08T22:22:43.098Z,42.57
2022-12-08T22:25:12.677Z,43.38
2022-12-08T22:27:43.113Z,41.58
2022-12-08T22:30:13.484Z,41.53
2022-12-08T22:32:42.543Z,45.78
2022-12-08T22:35:11.373Z,45.13
2022-12-08T22:37:39.886Z,44.97
2022-12-08T22:40:09.519Z,45.92
2022-12-08T22:42:38.316Z,46.20
2022-12-08T22:45:08.102Z,52.40
2022-12-08T22:47:38.408Z,48.20
2022-12-08T22:50:08.246Z,47.95
2022-12-08T22:52:37.068Z,48.45
2022-12-08T22:55:06.164Z,51.55
2022-12-08T22:57:35.123Z,52.72
2022-12-08T23:00:03.637Z,50.47
2022-12-08T23:02:32.188Z,55.90
2022-12-08T23:05:02.221Z,55.35
2022-12-08T23:07:33.962Z,61.90
2022-12-08T23:10:02.251Z,57.45
2022-12-08T23:12:30.700Z,59.55
2022-12-08T23:14:58.973Z,65.05
2022-12-08T23:17:27.815Z,65.65
2022-12-08T23:19:56.235Z,59.75
2022-12-08T23:22:26.043Z,53.78
2022-12-08T23:24:54.530Z,51.75
2022-12-08T23:27:22.926Z,44.22
2022-12-08T23:29:51.360Z,42.10
2022-12-08T23:32:20.009Z,46.45
2022-12-08T23:34:48.967Z,41.63
2022-12-08T23:37:17.722Z,41.30
2022-12-08T23:39:47.476Z,46.30
2022-12-08T23:42:16.124Z,45.70
2022-12-08T23:44:44.632Z,46.15
2022-12-08T23:47:13.520Z,38.20
2022-12-08T23:49:41.862Z,42.33
2022-12-08T23:52:12.985Z,44.53
2022-12-08T23:54:41.910Z,42.15
2022-12-08T23:57:11.783Z,39.58
2022-12-08T23:59:40.079Z,43.55
